Time;durP1;ratioP1;P1;durP2;ratioP2;P2;SDS_P1;SDS_P2;PMS_P1;PMS_P2;Temp;Humidity;BMP_temperature;BMP_pressure;BME280_temperature;BME280_humidity;BME280_pressure;Samples;Min_cycle;Max_cycle;Signal;HPM_P1;HPM_P2
2023/03/28 00:00:41;;;;;;;12.50;3.53;;;;;;;-1.10;83.36;102636.25;5021862;28;20562;-77
2023/03/28 00:03:13;;;;;;;10.00;3.10;;;;;;;-1.13;83.47;102641.19;5039689;28;20032;-76
2023/03/28 00:05:40;;;;;;;9.25;3.20;;;;;;;-1.13;83.54;102637.75;5027623;28;20382;-77
2023/03/28 00:08:05;;;;;;;8.73;2.90;;;;;;;-1.16;83.74;102632.41;5015431;28;20025;-77
2023/03/28 00:10:31;;;;;;;10.38;3.67;;;;;;;-1.16;83.78;102637.53;5016556;28;20029;-76
2023/03/28 00:12:56;;;;;;;12.48;3.45;;;;;;;-1.18;83.27;102645.13;5015162;28;20444;-77
2023/03/28 00:15:22;;;;;;;12.52;3.70;;;;;;;-1.19;83.46;102632.16;5016556;28;20512;-76
2023/03/28 00:17:48;;;;;;;12.23;4.05;;;;;;;-1.21;83.48;102639.78;5014459;28;20081;-69
2023/03/28 00:20:14;;;;;;;9.60;3.45;;;;;;;-1.25;83.71;102633.56;5033538;28;20023;-69
2023/03/28 00:22:43;;;;;;;9.45;2.80;;;;;;;-1.26;83.71;102636.94;4997113;28;20087;-69
2023/03/28 00:25:08;;;;;;;11.55;2.92;;;;;;;-1.31;83.58;102630.56;5011204;28;20102;-69
2023/03/28 00:27:35;;;;;;;9.82;2.80;;;;;;;-1.32;83.60;102635.63;5020734;28;20030;-69
2023/03/28 00:30:05;;;;;;;10.82;3.13;;;;;;;-1.38;82.36;102630.97;4998454;28;20042;-69
2023/03/28 00:32:30;;;;;;;10.20;2.75;;;;;;;-1.42;82.63;102635.03;5016152;28;20052;-77
2023/03/28 00:34:56;;;;;;;10.07;3.22;;;;;;;-1.44;83.67;102636.63;5029847;28;20017;-77
2023/03/28 00:37:22;;;;;;;10.27;3.42;;;;;;;-1.44;83.22;102634.06;5039902;28;20485;-77
2023/03/28 00:39:50;;;;;;;11.85;4.18;;;;;;;-1.49;83.23;102630.28;5016183;28;20068;-77
2023/03/28 00:42:18;;;;;;;15.60;4.03;;;;;;;-1.52;82.42;102636.88;5018868;28;20026;-77
2023/03/28 00:44:52;;;;;;;7.85;3.35;;;;;;;-1.52;83.22;102642.03;5016594;28;20383;-77
2023/03/28 00:47:26;;;;;;;12.10;3.38;;;;;;;-1.57;82.70;102636.56;5027892;28;20028;-76
2023/03/28 00:50:12;;;;;;;10.55;3.20;;;;;;;-1.59;82.02;102636.47;5037793;28;20029;-76
2023/03/28 00:52:44;;;;;;;6.53;2.80;;;;;;;-1.64;81.85;102636.97;5032120;28;20484;-76
2023/03/28 00:55:16;;;;;;;10.35;3.28;;;;;;;-1.72;82.23;102638.13;5031554;28;20079;-77
2023/03/28 00:57:45;;;;;;;9.80;3.42;;;;;;;-1.76;82.58;102637.91;5032209;28;20025;-76
2023/03/28 01:00:11;;;;;;;10.27;2.83;;;;;;;-1.76;83.28;102637.03;5032553;28;20462;-76
2023/03/28 01:02:44;;;;;;;9.63;3.22;;;;;;;-1.79;83.29;102637.72;4999265;28;20112;-75
2023/03/28 01:05:12;;;;;;;9.32;3.30;;;;;;;-1.81;83.19;102641.88;5016514;28;20560;-76
2023/03/28 01:07:44;;;;;;;12.18;3.20;;;;;;;-1.84;83.52;102630.47;5047249;28;20110;-76
2023/03/28 01:10:10;;;;;;;7.90;3.00;;;;;;;-1.84;83.86;102636.53;5031367;28;20369;-76
2023/03/28 01:12:37;;;;;;;11.07;3.45;;;;;;;-1.88;84.30;102633.63;5020782;28;20127;-69
2023/03/28 01:15:03;;;;;;;9.35;3.58;;;;;;;-1.90;84.59;102635.22;5013645;28;20052;-69
2023/03/28 01:17:29;;;;;;;10.68;3.83;;;;;;;-1.93;84.74;102634.19;5023983;28;20462;-69
2023/03/28 01:20:39;;;;;;;13.90;3.85;;;;;;;-1.93;85.30;102628.19;5015838;28;20098;-69
2023/03/28 01:23:25;;;;;;;12.32;3.38;;;;;;;-1.97;84.69;102637.38;5030226;28;20030;-69
2023/03/28 01:26:06;;;;;;;8.77;3.53;;;;;;;-1.97;86.02;102621.94;5033294;28;20128;-69
2023/03/28 01:29:03;;;;;;;9.63;3.85;;;;;;;-1.95;86.00;102624.63;5043004;28;20025;-69
2023/03/28 01:31:40;;;;;;;10.35;3.95;;;;;;;-1.99;85.49;102623.50;5028786;28;20091;-69
2023/03/28 01:34:29;;;;;;;11.10;3.47;;;;;;;-2.01;84.74;102621.63;5030423;28;20091;-69
2023/03/28 01:37:04;;;;;;;10.45;3.50;;;;;;;-2.00;85.27;102615.69;5043859;28;20029;-69
2023/03/28 01:39:33;;;;;;;10.35;3.58;;;;;;;-2.03;84.65;102620.63;5029994;28;20045;-69
2023/03/28 01:42:07;;;;;;;15.57;4.05;;;;;;;-2.04;84.72;102621.41;5031745;28;20053;-69
2023/03/28 01:44:43;;;;;;;9.05;3.05;;;;;;;-2.07;85.22;102610.94;5032983;28;20038;-69
2023/03/28 01:47:24;;;;;;;11.90;3.70;;;;;;;-2.06;84.29;102620.44;5030841;28;20035;-70
2023/03/28 01:50:02;;;;;;;8.00;3.85;;;;;;;-2.09;84.79;102609.13;5031521;28;20032;-69
2023/03/28 01:52:42;;;;;;;15.18;3.72;;;;;;;-2.12;84.81;102614.06;5028125;28;20037;-69
2023/03/28 01:55:25;;;;;;;8.82;3.80;;;;;;;-2.13;84.55;102625.13;5031355;28;20048;-69
2023/03/28 01:58:09;;;;;;;9.27;3.40;;;;;;;-2.18;83.93;102613.66;5031112;28;20021;-69
2023/03/28 02:00:53;;;;;;;13.30;4.30;;;;;;;-2.19;83.95;102609.28;5026984;28;20037;-69
2023/03/28 02:03:27;;;;;;;13.68;3.90;;;;;;;-2.21;83.76;102609.97;5038207;28;20025;-69
2023/03/28 02:05:57;;;;;;;12.25;4.95;;;;;;;-2.24;84.49;102604.63;5047897;28;20029;-69
2023/03/28 02:08:27;;;;;;;9.82;3.58;;;;;;;-2.22;84.64;102609.09;5046233;28;20036;-69
2023/03/28 02:10:55;;;;;;;11.73;4.00;;;;;;;-2.24;84.69;102615.81;5025219;28;20029;-69
2023/03/28 02:13:27;;;;;;;11.32;3.95;;;;;;;-2.24;85.79;102612.34;5047306;28;20420;-69
2023/03/28 02:15:59;;;;;;;9.60;4.03;;;;;;;-2.29;84.81;102609.47;5028924;28;20036;-69
2023/03/28 02:18:33;;;;;;;11.32;4.60;;;;;;;-2.25;85.91;102613.16;5045085;28;20025;-69
2023/03/28 02:21:04;;;;;;;11.95;4.85;;;;;;;-2.26;85.80;102617.38;5030713;28;20024;-69
2023/03/28 02:23:37;;;;;;;11.10;4.10;;;;;;;-2.27;85.67;102610.44;5047374;28;20488;-69
2023/03/28 02:26:02;;;;;;;14.95;3.90;;;;;;;-2.27;85.64;102606.22;5039350;28;20166;-69
2023/03/28 02:28:30;;;;;;;10.43;4.13;;;;;;;-2.29;85.04;102604.31;5014328;28;20088;-70
2023/03/28 02:30:57;;;;;;;9.77;4.03;;;;;;;-2.32;84.73;102601.53;5030709;28;20033;-70
2023/03/28 02:33:41;;;;;;;14.65;4.88;;;;;;;-2.26;85.97;102604.53;5042897;28;20029;-69
2023/03/28 02:36:39;;;;;;;17.38;5.10;;;;;;;-2.32;85.62;102598.97;5047395;28;20037;-69
2023/03/28 02:39:29;;;;;;;13.23;5.13;;;;;;;-2.30;85.68;102608.56;5011800;28;20570;-70
2023/03/28 02:42:27;;;;;;;12.02;4.43;;;;;;;-2.29;86.10;102612.03;5026939;28;20025;-69
2023/03/28 02:45:17;;;;;;;11.10;4.78;;;;;;;-2.31;85.45;102609.34;5042595;28;20051;-69
2023/03/28 02:47:54;;;;;;;10.52;4.20;;;;;;;-2.37;84.64;102608.94;5029376;28;20036;-69
2023/03/28 02:50:26;;;;;;;14.35;5.10;;;;;;;-2.38;85.46;102609.72;5030354;28;20067;-69
2023/03/28 02:53:21;;;;;;;11.57;4.80;;;;;;;-2.41;85.05;102609.50;5027108;28;20108;-69
2023/03/28 02:55:55;;;;;;;11.68;5.18;;;;;;;-2.41;85.50;102608.59;5026597;28;20025;-69
2023/03/28 02:58:36;;;;;;;15.00;4.55;;;;;;;-2.41;85.44;102608.59;5047039;28;20030;-69
2023/03/28 03:01:02;;;;;;;;;;;;;;;-2.38;84.37;102596.00;5046364;28;20079;-76
2023/03/28 03:03:28;;;;;;;12.15;5.05;;;;;;;-2.42;85.62;102597.44;5032689;28;20252;-76
2023/03/28 03:05:53;;;;;;;10.63;4.65;;;;;;;-2.46;86.01;102598.94;5028520;28;20034;-76
2023/03/28 03:08:19;;;;;;;11.73;5.05;;;;;;;-2.45;86.48;102589.53;5012962;28;20041;-76
2023/03/28 03:10:45;;;;;;;14.05;5.65;;;;;;;-2.42;86.87;102594.00;5030338;28;20026;-77
2023/03/28 03:13:10;;;;;;;13.18;5.00;;;;;;;-2.47;86.63;102592.00;4994384;28;20033;-76
2023/03/28 03:15:36;;;;;;;12.15;5.10;;;;;;;-2.47;86.62;102586.88;5010201;28;20026;-76
2023/03/28 03:18:04;;;;;;;13.90;5.80;;;;;;;-2.44;86.63;102599.03;5020068;28;20041;-76
2023/03/28 03:20:32;;;;;;;13.13;5.57;;;;;;;-2.47;86.96;102592.00;5010909;28;20030;-76
2023/03/28 03:22:59;;;;;;;18.55;6.53;;;;;;;-2.46;87.49;102598.94;5023237;28;20036;-76
2023/03/28 03:25:26;;;;;;;14.88;6.75;;;;;;;-2.46;87.68;102596.34;5030453;28;20453;-76
2023/03/28 03:27:52;;;;;;;15.40;6.22;;;;;;;-2.47;87.37;102601.34;5030272;28;20026;-76
2023/03/28 03:30:17;;;;;;;14.77;7.18;;;;;;;-2.47;87.27;102599.69;5013495;28;20366;-76
2023/03/28 03:32:44;;;;;;;15.18;6.82;;;;;;;-2.44;87.73;102605.03;5013214;28;20121;-76
2023/03/28 03:35:10;;;;;;;14.75;6.65;;;;;;;-2.45;87.85;102605.81;4997883;28;20116;-76
2023/03/28 03:37:36;;;;;;;14.68;7.00;;;;;;;-2.46;87.64;102600.56;5030086;28;20022;-76
2023/03/28 03:40:04;;;;;;;12.65;6.35;;;;;;;-2.49;87.10;102593.53;4995478;28;20053;-76
2023/03/28 03:42:30;;;;;;;15.60;6.22;;;;;;;-2.49;87.50;102606.38;5028173;28;20028;-76
2023/03/28 03:44:55;;;;;;;13.60;6.30;;;;;;;-2.49;87.61;102602.94;4997150;28;20359;-76
2023/03/28 03:47:21;;;;;;;12.52;6.38;;;;;;;-2.52;87.49;102603.59;5003706;28;20041;-75
2023/03/28 03:49:46;;;;;;;15.63;6.97;;;;;;;-2.56;86.80;102598.16;5009636;28;20120;-76
2023/03/28 03:52:12;;;;;;;14.68;6.30;;;;;;;-2.57;86.81;102593.81;4997799;28;20486;-76
2023/03/28 03:54:37;;;;;;;11.90;5.65;;;;;;;-2.61;87.03;102602.97;5017582;28;20469;-76
2023/03/28 03:57:03;;;;;;;11.68;6.28;;;;;;;-2.62;86.78;102601.19;5001587;28;20059;-76
2023/03/28 03:59:28;;;;;;;11.93;6.28;;;;;;;-2.63;86.94;102604.53;4997363;28;20052;-76
2023/03/28 04:01:54;;;;;;;13.65;6.70;;;;;;;-2.64;86.86;102602.75;4999333;28;20330;-76
2023/03/28 04:04:21;;;;;;;12.50;6.70;;;;;;;-2.62;87.15;102603.75;5015626;28;20043;-69
2023/03/28 04:06:46;;;;;;;12.93;6.25;;;;;;;-2.65;86.89;102601.84;5004767;28;20492;-69
2023/03/28 04:09:12;;;;;;;16.45;6.90;;;;;;;-2.65;87.54;102593.28;5033344;28;20116;-69
2023/03/28 04:11:37;;;;;;;16.25;6.75;;;;;;;-2.64;87.72;102597.63;5006350;28;20061;-70
2023/03/28 04:14:03;;;;;;;15.20;6.70;;;;;;;-2.63;87.68;102600.31;4999397;28;20132;-69
2023/03/28 04:16:29;;;;;;;12.90;7.05;;;;;;;-2.61;87.68;102597.84;5030322;28;20026;-69
2023/03/28 04:18:55;;;;;;;13.73;7.13;;;;;;;-2.60;87.51;102604.78;5045793;28;20385;-70
2023/03/28 04:21:29;;;;;;;13.30;6.18;;;;;;;-2.57;87.57;102597.28;5036792;28;20034;-69
2023/03/28 04:23:55;;;;;;;11.88;6.57;;;;;;;-2.56;87.62;102595.59;5047547;28;20057;-70
2023/03/28 04:26:27;;;;;;;11.52;6.40;;;;;;;-2.52;87.93;102588.22;5031411;28;20032;-69
2023/03/28 04:28:54;;;;;;;15.32;7.05;;;;;;;-2.59;87.32;102586.00;5032828;28;20375;-69
2023/03/28 04:31:21;;;;;;;14.00;6.75;;;;;;;-2.57;87.15;102584.44;5012847;28;20140;-69
2023/03/28 04:33:48;;;;;;;12.90;6.78;;;;;;;-2.57;86.93;102589.59;5032282;28;20021;-69
2023/03/28 04:36:15;;;;;;;13.25;6.80;;;;;;;-2.55;87.17;102582.88;5033077;28;20119;-69
2023/03/28 04:38:44;;;;;;;14.88;6.47;;;;;;;-2.52;87.01;102592.47;5032653;28;20036;-69
2023/03/28 04:41:11;;;;;;;11.07;6.20;;;;;;;-2.53;86.52;102585.53;5034225;28;20032;-71
2023/03/28 04:43:36;;;;;;;12.10;7.07;;;;;;;-2.51;86.94;102579.72;5033793;28;20071;-69
2023/03/28 04:46:02;;;;;;;13.43;6.75;;;;;;;-2.51;86.77;102584.88;5048522;28;20029;-69
2023/03/28 04:48:28;;;;;;;13.95;6.95;;;;;;;-2.54;86.27;102584.66;5031012;28;20025;-69
2023/03/28 04:50:54;;;;;;;13.45;6.60;;;;;;;-2.54;86.01;102592.34;5016245;28;20029;-69
2023/03/28 04:53:21;;;;;;;12.85;6.63;;;;;;;-2.54;86.22;102589.78;5015761;28;20099;-69
2023/03/28 04:55:51;;;;;;;13.93;7.05;;;;;;;-2.51;87.03;102587.44;5021003;28;20068;-69
2023/03/28 04:58:18;;;;;;;15.27;6.95;;;;;;;-2.52;86.88;102584.75;4998810;28;20033;-69
2023/03/28 05:00:44;;;;;;;13.50;6.65;;;;;;;-2.48;87.24;102591.91;5011172;28;20029;-76
2023/03/28 05:03:17;;;;;;;18.38;9.30;;;;;;;-2.51;86.78;102595.13;5023688;28;20064;-76
2023/03/28 05:05:44;;;;;;;17.77;8.52;;;;;;;-2.48;87.09;102589.31;5033793;28;20071;-77
2023/03/28 05:08:11;;;;;;;13.10;8.27;;;;;;;-2.48;87.32;102595.34;5015220;28;20528;-76
2023/03/28 05:10:37;;;;;;;18.77;8.35;;;;;;;-2.45;87.32;102604.94;5039690;28;20021;-76
2023/03/28 05:13:03;;;;;;;27.63;13.25;;;;;;;-2.49;86.73;102596.13;4995928;28;20038;-76
2023/03/28 05:15:30;;;;;;;63.03;32.85;;;;;;;-2.47;86.21;102603.91;5037634;28;20424;-76
2023/03/28 05:17:56;;;;;;;26.70;13.48;;;;;;;-2.47;86.24;102599.69;5031467;28;20048;-76
2023/03/28 05:20:21;;;;;;;14.27;8.73;;;;;;;-2.47;86.73;102609.06;5030985;28;20017;-76
2023/03/28 05:22:47;;;;;;;16.30;8.05;;;;;;;-2.47;86.73;102611.63;5046052;28;20465;-76
2023/03/28 05:25:12;;;;;;;17.38;9.48;;;;;;;-2.45;87.28;102617.78;5032783;28;20420;-76
2023/03/28 05:27:38;;;;;;;17.83;9.52;;;;;;;-2.45;86.88;102616.09;5029739;28;20484;-76
2023/03/28 05:30:08;;;;;;;15.75;9.05;;;;;;;-2.42;87.05;102623.13;5032653;28;20037;-76
2023/03/28 05:32:34;;;;;;;21.05;9.02;;;;;;;-2.42;87.15;102610.28;5025309;28;20097;-77
2023/03/28 05:35:03;;;;;;;19.35;10.20;;;;;;;-2.39;87.54;102619.88;5015350;28;20721;-76
2023/03/28 05:37:28;;;;;;;23.33;10.55;;;;;;;-2.41;87.77;102624.00;5028626;28;20038;-76
2023/03/28 05:39:54;;;;;;;27.83;15.63;;;;;;;-2.42;87.40;102622.25;5011781;28;20050;-76
2023/03/28 05:42:20;;;;;;;23.90;14.30;;;;;;;-2.44;86.96;102622.13;5037131;28;20025;-76
2023/03/28 05:44:45;;;;;;;29.92;16.23;;;;;;;-2.41;87.06;102616.28;5013491;28;20462;-76
2023/03/28 05:47:10;;;;;;;35.95;17.10;;;;;;;-2.39;87.19;102617.31;4995801;28;20037;-76
2023/03/28 05:49:36;;;;;;;26.67;14.15;;;;;;;-2.37;86.89;102629.47;5006643;28;20026;-76
2023/03/28 05:52:01;;;;;;;40.67;22.38;;;;;;;-2.33;87.07;102631.47;5005066;28;20774;-75
2023/03/28 05:54:27;;;;;;;25.20;14.50;;;;;;;-2.23;87.13;102632.97;5016340;28;20044;-76
2023/03/28 05:56:52;;;;;;;16.27;10.45;;;;;;;-2.18;87.87;102621.38;4995402;28;20115;-76
2023/03/28 05:59:18;;;;;;;17.80;11.60;;;;;;;-2.11;88.04;102632.97;5010485;28;20360;-76
2023/03/28 06:01:48;;;;;;;26.90;15.20;;;;;;;-2.05;87.37;102627.31;5036889;28;20030;-76
2023/03/28 06:04:14;;;;;;;29.63;16.10;;;;;;;-1.97;87.65;102623.59;5001843;28;20382;-76
2023/03/28 06:06:40;;;;;;;22.92;12.73;;;;;;;-1.89;87.54;102619.88;5012800;28;20036;-76
2023/03/28 06:09:05;;;;;;;20.33;12.48;;;;;;;-1.73;87.26;102618.34;5011803;28;20037;-76
2023/03/28 06:11:31;;;;;;;20.48;12.98;;;;;;;-1.60;87.50;102621.84;5013656;28;20037;-77
2023/03/28 06:13:56;;;;;;;24.25;12.93;;;;;;;-1.43;87.25;102622.06;5013587;28;20504;-76
2023/03/28 06:16:22;;;;;;;23.38;13.15;;;;;;;-1.21;87.99;102629.50;4993789;28;20030;-76
2023/03/28 06:18:49;;;;;;;23.02;13.95;;;;;;;-0.95;87.37;102620.00;5029525;28;20029;-76
2023/03/28 06:21:15;;;;;;;24.25;13.07;;;;;;;-0.78;87.00;102621.06;5047666;28;20079;-76
2023/03/28 06:23:40;;;;;;;22.10;13.45;;;;;;;-0.54;87.03;102617.47;4997754;28;20400;-76
2023/03/28 06:26:06;;;;;;;20.40;13.85;;;;;;;-0.28;87.02;102619.88;5010554;28;20482;-76
2023/03/28 06:28:31;;;;;;;21.27;13.95;;;;;;;0.08;86.95;102620.31;5030399;28;20053;-76
2023/03/28 06:30:57;;;;;;;22.00;14.52;;;;;;;0.45;87.43;102617.34;5013633;28;20021;-77
2023/03/28 06:33:22;;;;;;;22.13;12.35;;;;;;;0.69;85.38;102617.88;5011772;28;20037;-77
2023/03/28 06:35:48;;;;;;;25.00;13.27;;;;;;;1.16;86.11;102621.34;5027612;28;20430;-70
2023/03/28 06:38:13;;;;;;;23.58;13.85;;;;;;;1.58;86.10;102621.00;5011111;28;20049;-70
2023/03/28 06:40:39;;;;;;;22.27;11.88;;;;;;;1.92;83.86;102622.81;5013210;28;20436;-70
2023/03/28 06:43:04;;;;;;;17.70;10.30;;;;;;;2.32;82.05;102624.88;4994069;28;20106;-70
2023/03/28 06:45:30;;;;;;;15.00;10.43;;;;;;;2.56;80.53;102625.22;5025214;28;20077;-70
2023/03/28 06:47:55;;;;;;;14.52;10.40;;;;;;;2.87;78.81;102624.13;5025954;28;20128;-70
2023/03/28 06:50:21;;;;;;;14.32;9.35;;;;;;;3.05;75.96;102622.41;5014065;28;20041;-70
2023/03/28 06:52:46;;;;;;;13.77;8.50;;;;;;;3.02;73.71;102624.88;4994080;28;20034;-70
2023/03/28 06:55:12;;;;;;;17.85;9.20;;;;;;;2.98;72.80;102629.84;4996595;28;20029;-70
2023/03/28 06:57:40;;;;;;;14.98;8.73;;;;;;;2.93;72.89;102627.00;5026324;28;20045;-70
2023/03/28 07:00:07;;;;;;;14.57;8.75;;;;;;;3.03;74.67;102629.25;5040989;28;20483;-70
2023/03/28 07:05:08;;;;;;;13.43;8.93;;;;;;;3.39;74.80;102626.63;793610;22;20521;-77
2023/03/28 07:23:04;;;;;;;13.35;8.27;;;;;;;6.54;70.41;102641.78;5041484;22;20044;-71
2023/03/28 07:25:31;;;;;;;17.73;8.23;;;;;;;6.77;67.60;102639.06;5176814;22;20056;-73
2023/03/28 07:28:02;;;;;;;15.77;7.60;;;;;;;6.83;65.91;102639.25;5268793;22;20046;31
2023/03/28 07:30:28;;;;;;;14.73;8.15;;;;;;;7.49;68.19;102637.81;5277700;23;20060;-75
2023/03/28 07:35:26;;;;;;;13.77;7.82;;;;;;;8.09;64.11;102641.28;5134300;22;20446;-71
2023/03/28 07:37:51;;;;;;;14.20;7.68;;;;;;;8.40;65.16;102648.19;5117342;22;20108;-74
2023/03/28 07:42:52;;;;;;;14.18;7.72;;;;;;;9.25;61.38;102647.69;5277313;22;20049;-69
2023/03/28 07:47:52;;;;;;;13.10;7.90;;;;;;;9.68;61.80;102648.63;5205580;22;20038;-75
2023/03/28 07:50:18;;;;;;;12.80;7.38;;;;;;;9.88;56.03;102642.88;5055103;22;20024;-69
2023/03/28 07:52:45;;;;;;;12.35;6.70;;;;;;;10.16;56.71;102646.94;5082835;22;20015;-69
2023/03/28 07:55:12;;;;;;;13.27;6.32;;;;;;;9.82;52.81;102646.25;5123882;22;20151;-76
2023/03/28 07:57:37;;;;;;;14.18;7.40;;;;;;;9.91;53.12;102640.31;5049345;28;20042;-76
2023/03/28 08:00:07;;;;;;;15.13;7.32;;;;;;;9.69;53.40;102647.75;4997578;28;20373;-76
2023/03/28 08:07:57;;;;;;;15.98;5.60;;;;;;;9.92;54.74;102643.84;5454488;23;20397;-69
2023/03/28 08:10:22;;;;;;;15.88;6.07;;;;;;;9.25;53.12;102637.22;4996166;28;20042;-69
2023/03/28 08:12:48;;;;;;;15.63;5.55;;;;;;;9.36;55.33;102637.44;4988986;28;20515;-76
2023/03/28 08:15:13;;;;;;;11.80;5.20;;;;;;;9.71;55.87;102648.69;4996679;28;20351;-77
2023/03/28 08:17:39;;;;;;;11.98;5.05;;;;;;;9.63;54.26;102642.38;4980306;28;20543;-76
2023/03/28 08:20:08;;;;;;;11.50;4.90;;;;;;;9.76;52.86;102645.28;4982071;28;20026;-75
2023/03/28 08:22:34;;;;;;;8.80;4.70;;;;;;;9.66;50.67;102644.19;4997118;28;20084;-76
2023/03/28 08:24:59;;;;;;;10.00;4.15;;;;;;;9.28;51.38;102637.28;5012209;28;20030;-77
2023/03/28 08:27:25;;;;;;;9.35;4.30;;;;;;;9.34;52.96;102641.78;4995731;28;20126;-76
2023/03/28 08:29:50;;;;;;;11.90;4.40;;;;;;;9.64;52.43;102646.78;4971953;28;20030;-76
2023/03/28 08:32:16;;;;;;;10.02;4.55;;;;;;;9.43;52.34;102641.97;4980134;28;20363;-75
2023/03/28 08:34:41;;;;;;;12.88;5.18;;;;;;;9.60;54.38;102642.34;4979640;28;20030;-76
2023/03/28 08:37:07;;;;;;;10.38;4.80;;;;;;;9.07;52.66;102648.13;4954583;28;20038;-76
2023/03/28 08:39:33;;;;;;;9.50;5.22;;;;;;;8.56;52.64;102644.28;5009348;28;20365;-75
2023/03/28 08:42:35;;;;;;;11.15;4.60;;;;;;;8.05;53.32;102649.88;4994308;28;20025;-76
2023/03/28 08:45:15;;;;;;;12.45;4.75;;;;;;;7.72;55.21;102641.09;4987329;28;20032;-75
2023/03/28 08:48:05;;;;;;;13.40;4.47;;;;;;;7.60;56.50;102643.34;4987236;28;20444;-76
2023/03/28 08:50:35;;;;;;;10.15;4.22;;;;;;;7.89;57.61;102636.38;4996211;28;20473;-75
2023/03/28 08:53:02;;;;;;;7.78;3.40;;;;;;;8.36;55.71;102640.22;4996001;28;20029;-78
2023/03/28 08:55:41;;;;;;;10.38;4.07;;;;;;;8.80;53.73;102632.66;5000433;28;20053;-75
2023/03/28 08:58:18;;;;;;;9.15;3.78;;;;;;;8.60;52.62;102629.56;5006922;28;20026;-76
2023/03/28 09:00:45;;;;;;;11.32;3.97;;;;;;;8.39;54.06;102627.25;4988728;28;20034;-75
2023/03/28 09:03:16;;;;;;;9.80;3.50;;;;;;;8.07;52.99;102633.38;4961493;28;20030;-76
2023/03/28 09:05:48;;;;;;;10.90;3.88;;;;;;;7.82;52.90;102626.59;4972841;28;20116;-76
2023/03/28 09:08:26;;;;;;;10.65;3.30;;;;;;;8.27;55.06;102615.63;4993043;28;20104;-76
2023/03/28 09:11:07;;;;;;;9.40;3.08;;;;;;;8.41;54.01;102623.84;4995049;28;20116;-75
2023/03/28 09:13:48;;;;;;;;;;;;;;;8.14;51.93;102623.97;4981645;28;20042;-76
2023/03/28 09:16:39;;;;;;;10.68;2.78;;;;;;;7.83;54.04;102617.94;4995582;28;19916;-76
2023/03/28 09:19:27;;;;;;;11.57;2.47;;;;;;;7.42;51.99;102620.22;5012142;28;20481;-76
2023/03/28 09:22:17;;;;;;;5.47;2.65;;;;;;;7.25;53.74;102617.97;4992584;28;20034;-77
2023/03/28 09:24:59;;;;;;;7.72;2.13;;;;;;;6.91;53.80;102621.25;4993093;28;20030;-76
2023/03/28 09:27:34;;;;;;;9.30;2.30;;;;;;;6.55;53.70;102614.91;4992303;28;20034;-76
2023/03/28 09:30:16;;;;;;;11.45;3.03;;;;;;;6.37;55.56;102625.56;4993057;28;20038;-76
2023/03/28 09:32:42;;;;;;;10.20;2.53;;;;;;;6.14;55.91;102610.91;4991507;28;20339;-76
2023/03/28 09:35:18;;;;;;;7.85;2.50;;;;;;;6.11;56.30;102606.47;5011576;28;20038;-75
2023/03/28 09:37:53;;;;;;;8.75;2.50;;;;;;;6.22;56.38;102607.72;5008611;28;20109;-76
2023/03/28 09:40:23;;;;;;;9.93;2.10;;;;;;;6.01;56.61;102606.97;4990425;28;20026;-76
2023/03/28 09:42:55;;;;;;;8.02;2.13;;;;;;;5.88;54.99;102606.50;4999450;28;20037;-76
2023/03/28 09:45:24;;;;;;;13.07;2.65;;;;;;;6.04;57.40;102612.28;4993965;28;20125;-79
2023/03/28 09:47:50;;;;;;;7.72;2.30;;;;;;;5.93;57.50;102608.38;4987601;28;20040;-79
2023/03/28 09:50:17;;;;;;;10.23;2.30;;;;;;;6.14;58.16;102610.91;4993019;28;20409;-79
2023/03/28 09:52:45;;;;;;;5.45;1.88;;;;;;;6.15;57.22;102604.84;4993782;28;20112;-77
2023/03/28 09:55:27;;;;;;;8.55;2.75;;;;;;;5.91;55.95;102600.53;4992064;28;20029;-79
2023/03/28 09:57:59;;;;;;;13.70;2.58;;;;;;;5.75;55.07;102599.09;5009825;28;20425;-78
2023/03/28 10:00:25;;;;;;;9.15;2.20;;;;;;;5.57;55.26;102594.06;4988011;28;20060;-78
2023/03/28 10:02:52;;;;;;;9.32;1.95;;;;;;;5.69;56.21;102591.94;4993439;28;20042;-78
2023/03/28 10:05:37;;;;;;;8.50;2.80;;;;;;;5.70;56.04;102585.91;4987819;28;20030;-78
2023/03/28 10:08:18;;;;;;;9.93;2.42;;;;;;;5.70;57.56;102582.41;5010708;28;20052;-78
2023/03/28 10:10:45;;;;;;;6.55;2.13;;;;;;;5.63;54.47;102578.72;4991101;28;20048;-78
2023/03/28 10:13:11;;;;;;;6.10;1.65;;;;;;;5.67;55.06;102574.50;5012011;28;20037;-79
2023/03/28 10:15:47;;;;;;;7.47;2.03;;;;;;;5.92;56.99;102570.16;4983909;28;20497;-78
2023/03/28 10:18:17;;;;;;;5.68;1.73;;;;;;;6.20;55.84;102562.50;4991563;28;20550;-78
2023/03/28 10:20:42;;;;;;;6.50;1.70;;;;;;;6.41;54.21;102558.88;4986645;28;20022;-79
2023/03/28 10:23:12;;;;;;;4.95;2.15;;;;;;;6.57;54.72;102557.66;5008139;28;20038;-79
2023/03/28 10:25:41;;;;;;;4.35;1.50;;;;;;;6.80;55.51;102547.09;4991331;28;20125;-79
2023/03/28 10:28:13;;;;;;;7.35;2.00;;;;;;;6.88;53.63;102535.16;4992641;28;20026;-78
2023/03/28 10:30:40;;;;;;;4.18;1.60;;;;;;;6.55;50.74;102547.19;4990484;28;20097;-78
2023/03/28 10:33:19;;;;;;;6.78;2.55;;;;;;;6.59;53.57;102536.03;4993133;28;20046;-78
2023/03/28 10:36:08;;;;;;;7.28;1.85;;;;;;;6.80;53.37;102534.94;5009112;28;20041;-78
2023/03/28 10:38:35;;;;;;;6.32;2.10;;;;;;;7.07;53.46;102534.88;4992956;28;20363;-78
2023/03/28 10:41:06;;;;;;;6.88;1.95;;;;;;;7.34;53.00;102528.72;4994058;28;20029;-77
2023/03/28 10:43:39;;;;;;;6.10;1.77;;;;;;;7.22;52.78;102523.13;4991438;28;20087;-78
2023/03/28 10:46:44;;;;;;;7.57;2.15;;;;;;;7.25;54.52;102518.88;5007761;28;20077;-77
2023/03/28 10:49:16;;;;;;;7.80;3.45;;;;;;;6.82;50.90;102528.03;4913073;29;20135;-78
2023/03/28 10:51:43;;;;;;;7.30;2.15;;;;;;;6.66;51.51;102510.16;4913572;29;20096;-78
2023/03/28 10:54:27;;;;;;;10.13;2.40;;;;;;;6.70;52.01;102514.66;4930103;28;20141;-78
2023/03/28 10:57:20;;;;;;;6.07;2.00;;;;;;;6.69;52.91;102507.66;4984550;28;20026;-78
2023/03/28 10:59:58;;;;;;;5.05;1.95;;;;;;;6.74;52.21;102508.69;5015690;28;20525;-78
2023/03/28 11:02:37;;;;;;;9.98;2.47;;;;;;;6.73;52.36;102501.72;4990685;28;20577;-77
2023/03/28 11:05:15;;;;;;;7.70;2.40;;;;;;;6.98;52.53;102499.84;5001133;28;20029;-70
2023/03/28 11:07:56;;;;;;;8.85;2.05;;;;;;;7.22;51.89;102503.16;4986742;28;20115;-71
2023/03/28 11:11:09;;;;;;;7.63;2.20;;;;;;;7.28;51.74;102502.44;4994241;28;20034;-71
2023/03/28 11:14:01;;;;;;;4.32;1.75;;;;;;;7.80;49.12;102490.84;4992886;28;20061;-71
2023/03/28 11:17:11;;;;;;;4.80;1.75;;;;;;;7.92;51.05;102477.22;4997619;28;20044;-79
2023/03/28 11:19:40;;;;;;;5.82;2.00;;;;;;;8.16;47.09;102481.31;4996315;28;20087;-79
2023/03/28 11:22:45;;;;;;;5.57;1.60;;;;;;;8.27;47.85;102469.38;4995965;28;20041;-78
2023/03/28 11:25:39;;;;;;;6.60;2.30;;;;;;;8.35;49.83;102460.81;5011006;28;20037;-78
2023/03/28 11:28:26;;;;;;;4.30;1.95;;;;;;;8.17;46.10;102456.06;4994102;28;20034;-78
2023/03/28 11:30:56;;;;;;;8.18;2.85;;;;;;;7.81;44.69;102444.75;5013022;28;20068;-78
2023/03/28 11:33:45;;;;;;;5.40;1.88;;;;;;;7.60;46.73;102445.97;5012707;28;20434;-77
2023/03/28 11:36:20;;;;;;;9.18;2.30;;;;;;;7.56;46.24;102451.06;4984536;28;20049;-77
2023/03/28 11:38:51;;;;;;;4.60;1.95;;;;;;;7.74;45.70;102435.00;5013371;28;20034;-78
2023/03/28 11:41:25;;;;;;;8.40;2.22;;;;;;;8.17;49.01;102424.72;4998231;28;20489;-79
2023/03/28 11:44:09;;;;;;;8.90;2.47;;;;;;;8.04;46.68;102428.78;5009371;28;20030;-78
2023/03/28 11:46:41;;;;;;;8.68;3.03;;;;;;;8.06;44.18;102422.75;4996649;28;20034;-78
2023/03/28 11:49:15;;;;;;;6.43;2.28;;;;;;;8.02;45.72;102414.81;4996342;28;20037;-78
2023/03/28 11:51:53;;;;;;;9.55;1.98;;;;;;;8.44;45.29;102427.09;5011075;28;20045;-78
2023/03/28 11:54:35;;;;;;;5.20;2.20;;;;;;;8.66;46.06;102426.75;5016332;28;20108;-78
2023/03/28 11:57:27;;;;;;;8.10;2.63;;;;;;;8.77;44.92;102408.66;5010331;28;20025;-79
2023/03/28 12:00:19;;;;;;;9.43;2.97;;;;;;;9.23;45.72;102403.47;5012233;28;20599;-79
2023/03/28 12:03:01;;;;;;;6.25;2.63;;;;;;;9.44;44.81;102394.25;4996237;28;20022;-79
2023/03/28 12:05:42;;;;;;;8.77;2.58;;;;;;;8.91;42.48;102376.72;5004527;28;20112;-79
2023/03/28 12:08:50;;;;;;;6.18;2.28;;;;;;;8.74;45.67;102381.59;4993285;28;20057;-78
2023/03/28 12:12:03;;;;;;;6.80;2.33;;;;;;;8.89;44.69;102376.66;4957959;28;20038;-79
2023/03/28 12:14:45;;;;;;;5.18;1.95;;;;;;;9.19;45.77;102370.25;4969545;28;20034;-79